createdAt,value
2023-05-21T15:41:18.949Z,5.97
2023-05-21T15:51:25.883Z,7.50
2023-05-21T16:01:32.066Z,7.20
2023-05-21T16:11:35.924Z,8.48
2023-05-21T16:21:45.079Z,11.20
2023-05-21T16:31:48.880Z,11.70
2023-05-21T16:42:05.939Z,7.80
2023-05-21T17:02:48.426Z,5.47
2023-05-21T17:13:17.657Z,5.40
2023-05-21T17:23:32.648Z,5.10
2023-05-21T17:33:38.137Z,6.55
2023-05-21T17:43:46.752Z,5.63
2023-05-21T17:53:50.305Z,6.82
2023-05-21T18:03:55.751Z,7.07
2023-05-21T18:14:00.447Z,6.65
2023-05-21T18:24:08.873Z,6.55
2023-05-21T18:34:12.960Z,6.50
2023-05-21T18:44:20.848Z,5.57
2023-05-21T18:54:24.728Z,6.57
2023-05-21T19:04:31.824Z,6.25
2023-05-21T19:14:34.960Z,5.00
2023-05-21T19:24:39.540Z,6.55
2023-05-21T19:34:43.858Z,4.88
2023-05-21T19:44:48.454Z,6.10
2023-05-21T19:54:53.263Z,7.07
2023-05-21T20:05:01.393Z,5.70
2023-05-21T20:15:16.326Z,4.85
2023-05-21T20:25:21.284Z,4.63
2023-05-21T20:35:32.164Z,4.32
2023-05-21T20:45:42.757Z,4.90
2023-05-21T20:55:47.066Z,4.57
2023-05-21T21:05:53.570Z,3.95
2023-05-21T21:15:56.583Z,4.25
2023-05-21T21:26:01.649Z,3.38
2023-05-21T21:36:06.135Z,3.15
2023-05-21T21:46:10.721Z,3.78
2023-05-21T21:56:13.813Z,3.25
2023-05-21T22:06:19.356Z,2.50
2023-05-21T22:16:25.085Z,3.10
2023-05-21T22:26:29.990Z,2.17
2023-05-21T22:36:33.153Z,2.50
2023-05-21T22:46:38.490Z,3.13
2023-05-21T22:56:41.485Z,2.78
2023-05-21T23:06:48.836Z,2.22
2023-05-21T23:16:55.240Z,2.53
2023-05-21T23:27:03.160Z,2.95
2023-05-21T23:37:06.715Z,2.38
2023-05-21T23:47:11.680Z,2.42
2023-05-21T23:57:14.679Z,3.58
